Terminal Aerodrome Forecast
Issued by NWS Sterling, VA

Current Version | Previous Version | Text Only | Print | Product List | Glossary Off
Versions: 1 2 3 4 5 6 7 8 9 10 11 12 13 14 15 16 17 18 19 20 21 22 23 24 25 26 27 28

000
FTUS41 KLWX 220500 RRA
TAFDCA
TAF
KDCA 220544Z 2206/2306 00000KT P6SM SCT250
     FM221100 00000KT P6SM SCT050 BKN090
     FM221600 06004KT 6SM -RAPL OVC050
     FM221800 06004KT 5SM -RA SCT025 OVC050
     FM222000 06004KT 5SM -RA SCT015 OVC025
     FM230000 03006KT 3SM -RA OVC015
     FM230500 36005KT P6SM OVC008=

USA.gov is the U.S. government's official web portal to all federal, state and local government web resources and services.